Time;durP1;ratioP1;P1;durP2;ratioP2;P2;SDS_P1;SDS_P2;PMS_P1;PMS_P2;Temp;Humidity;BMP_temperature;BMP_pressure;BME280_temperature;BME280_humidity;BME280_pressure;Samples;Min_cycle;Max_cycle;Signal;HPM_P1;HPM_P2
2021/12/25 00:00:55;;;;;;;9.23;3.30;;;1.50;99.90;;;;;;4992237;28;20038;-51
2021/12/25 00:03:21;;;;;;;11.60;4.70;;;1.50;99.90;;;;;;5032054;28;20049;-48
2021/12/25 00:05:52;;;;;;;10.40;3.67;;;1.50;99.90;;;;;;5027859;28;20025;-47
2021/12/25 00:08:22;;;;;;;10.95;4.00;;;1.60;99.90;;;;;;5028517;28;20113;-46
2021/12/25 00:10:48;;;;;;;10.18;4.32;;;1.50;99.90;;;;;;5026271;28;20081;-48
2021/12/25 00:13:14;;;;;;;10.20;4.15;;;1.50;99.90;;;;;;5027083;28;20049;-49
2021/12/25 00:16:25;;;;;;;9.65;3.72;;;1.60;99.90;;;;;;5051572;28;20052;-49
2021/12/25 00:18:51;;;;;;;10.00;4.05;;;1.50;99.90;;;;;;5031053;28;20324;-47
2021/12/25 00:21:16;;;;;;;9.15;4.00;;;1.50;99.90;;;;;;5033653;28;20081;-47
2021/12/25 00:23:42;;;;;;;9.55;3.33;;;1.60;99.90;;;;;;5029968;28;20351;-46
2021/12/25 00:26:13;;;;;;;9.95;3.60;;;1.50;99.90;;;;;;5022601;28;20033;-47
2021/12/25 00:36:15;;;;;;;7.32;2.83;;;1.40;99.90;;;;;;5023481;28;20042;-49
2021/12/25 00:38:42;;;;;;;8.10;3.05;;;1.40;99.90;;;;;;5024258;28;20041;-51
2021/12/25 00:41:08;;;;;;;7.85;2.97;;;1.50;99.90;;;;;;5033008;28;20038;-49
2021/12/25 00:43:34;;;;;;;4.60;2.22;;;1.50;99.90;;;;;;5001572;28;20038;-48
2021/12/25 00:46:00;;;;;;;7.38;2.55;;;1.50;99.90;;;;;;5018025;28;20037;-47
2021/12/25 00:48:26;;;;;;;10.57;3.25;;;1.50;99.90;;;;;;5026159;28;20079;-50
2021/12/25 00:50:52;;;;;;;9.65;2.30;;;1.40;99.90;;;;;;5035989;28;20049;-51
2021/12/25 00:53:18;;;;;;;11.18;2.95;;;1.40;99.90;;;;;;5031288;28;20449;-47
2021/12/25 00:55:43;;;;;;;10.52;2.78;;;1.30;99.90;;;;;;5028700;28;20079;-48
2021/12/25 00:58:09;;;;;;;5.78;2.85;;;1.30;99.90;;;;;;5035906;28;20090;-48
2021/12/25 01:00:34;;;;;;;9.35;3.08;;;1.20;99.90;;;;;;5034568;28;20397;-47
2021/12/25 01:03:00;;;;;;;7.85;2.60;;;1.10;99.90;;;;;;5034700;28;20070;-49
2021/12/25 01:05:26;;;;;;;7.25;2.53;;;1.10;99.90;;;;;;5034825;28;20406;-47
2021/12/25 01:07:51;;;;;;;7.30;2.50;;;1.10;99.90;;;;;;5032279;28;20042;-51
2021/12/25 01:10:19;;;;;;;6.15;2.40;;;1.10;99.90;;;;;;4997116;28;20046;-51
2021/12/25 01:13:12;;;;;;;6.88;2.10;;;1.00;99.90;;;;;;5014762;28;20160;-48
2021/12/25 01:16:05;;;;;;;8.18;2.70;;;1.00;99.90;;;;;;5014893;28;20057;-47
2021/12/25 01:29:15;;;;;;;9.00;2.47;;;0.90;99.90;;;;;;5007185;28;20046;-48
2021/12/25 01:34:42;;;;;;;5.20;2.03;;;0.80;99.90;;;;;;5034259;28;20461;-48
2021/12/25 01:37:08;;;;;;;4.00;1.92;;;0.80;99.90;;;;;;5026730;28;20129;-48
2021/12/25 01:50:07;;;;;;;5.70;1.60;;;0.60;99.90;;;;;;4996576;28;20253;-48
2021/12/25 01:52:33;;;;;;;4.82;1.55;;;0.60;99.90;;;;;;5029368;28;20053;-48
2021/12/25 01:55:10;;;;;;;7.47;1.60;;;0.70;99.90;;;;;;5013763;28;20252;-47
2021/12/25 01:57:35;;;;;;;6.25;1.55;;;0.50;99.90;;;;;;5013964;28;20096;-51
2021/12/25 02:00:08;;;;;;;2.67;1.50;;;0.60;99.90;;;;;;4996009;28;20490;-47
2021/12/25 02:02:34;;;;;;;8.80;1.90;;;0.50;99.90;;;;;;5013353;28;20045;-51
2021/12/25 02:05:00;;;;;;;9.57;1.73;;;0.30;99.90;;;;;;5015055;28;20076;-47
2021/12/25 02:07:25;;;;;;;5.15;1.70;;;0.40;99.90;;;;;;5033838;28;20401;-47
2021/12/25 02:09:51;;;;;;;3.55;1.33;;;0.40;99.90;;;;;;5033814;28;20041;-48
2021/12/25 02:12:17;;;;;;;4.22;1.23;;;0.30;99.90;;;;;;5033013;28;20041;-48
2021/12/25 02:14:46;;;;;;;4.25;1.45;;;0.40;99.90;;;;;;5014357;28;20044;-47
2021/12/25 02:17:19;;;;;;;8.40;1.65;;;0.30;99.90;;;;;;5014241;28;20092;-47
2021/12/25 02:19:54;;;;;;;6.25;1.80;;;0.20;99.90;;;;;;5023956;28;20050;-48
2021/12/25 02:22:24;;;;;;;4.90;1.27;;;0.30;99.90;;;;;;5031016;28;20107;-51
2021/12/25 02:24:50;;;;;;;5.70;1.55;;;0.10;99.90;;;;;;5017493;28;20410;-50
2021/12/25 02:27:16;;;;;;;2.85;1.40;;;0.20;99.90;;;;;;4996021;28;20037;-48
2021/12/25 02:29:41;;;;;;;3.88;1.50;;;0.10;99.90;;;;;;5023163;28;20533;-48
2021/12/25 02:32:08;;;;;;;6.65;1.52;;;0.10;99.90;;;;;;5033094;28;20083;-48
2021/12/25 02:34:33;;;;;;;5.32;1.50;;;0.00;99.90;;;;;;5032153;28;20393;-50
2021/12/25 02:36:59;;;;;;;6.03;1.30;;;-0.10;99.90;;;;;;5030539;28;20037;-48
2021/12/25 02:39:25;;;;;;;3.60;1.30;;;0.00;99.90;;;;;;5032410;28;20436;-51
2021/12/25 02:41:51;;;;;;;7.82;1.58;;;0.10;99.90;;;;;;4996243;28;20489;-50
2021/12/25 02:44:16;;;;;;;6.10;1.25;;;0.00;99.90;;;;;;5031021;28;20137;-48
2021/12/25 02:46:43;;;;;;;5.40;1.45;;;-0.10;99.90;;;;;;5012756;28;20504;-47
2021/12/25 02:49:12;;;;;;;2.55;0.93;;;-0.10;99.90;;;;;;5012401;28;20548;-48
2021/12/25 02:51:39;;;;;;;7.30;1.42;;;-0.10;99.90;;;;;;5012789;28;20052;-47
2021/12/25 02:54:05;;;;;;;6.70;1.70;;;-0.20;99.90;;;;;;4978450;28;20124;-50
2021/12/25 03:00:24;;;;;;;7.43;1.80;;;0.00;99.50;;;;;;5026507;28;20095;-49
2021/12/25 03:02:50;;;;;;;2.85;1.70;;;-0.10;99.70;;;;;;5031745;28;20096;-50
2021/12/25 03:05:17;;;;;;;7.55;1.73;;;-0.20;99.90;;;;;;5032478;28;20041;-50
2021/12/25 03:07:42;;;;;;;3.78;1.17;;;-0.20;99.90;;;;;;5032047;28;20120;-54
2021/12/25 03:10:10;;;;;;;4.22;1.20;;;-0.30;99.90;;;;;;5020320;28;20128;-50
2021/12/25 03:12:47;;;;;;;3.03;1.40;;;-0.30;99.90;;;;;;5015076;28;20049;-50
2021/12/25 03:15:17;;;;;;;5.43;1.30;;;-0.30;99.60;;;;;;4988632;28;20042;-52
2021/12/25 03:17:43;;;;;;;6.00;1.73;;;-0.50;99.90;;;;;;4994675;28;20053;-51
2021/12/25 03:20:11;;;;;;;3.58;1.33;;;-0.40;99.90;;;;;;5012210;28;20128;-50
2021/12/25 03:22:37;;;;;;;4.65;1.13;;;-0.50;99.90;;;;;;4994436;28;20063;-51
2021/12/25 03:25:13;;;;;;;3.65;0.75;;;-0.50;99.90;;;;;;5011748;28;20457;-52
2021/12/25 03:27:42;;;;;;;5.18;1.65;;;-0.50;97.50;;;;;;5021249;28;20519;-53
2021/12/25 03:30:11;;;;;;;2.47;1.20;;;-0.60;97.40;;;;;;5014103;28;20084;-49
2021/12/25 03:32:37;;;;;;;4.45;1.10;;;-0.70;98.60;;;;;;5012955;28;20493;-53
2021/12/25 03:35:03;;;;;;;6.07;1.40;;;-0.70;98.90;;;;;;5029071;28;20033;-53
2021/12/25 03:37:29;;;;;;;3.42;1.42;;;-0.50;95.20;;;;;;5011808;28;20449;-53
2021/12/25 03:39:54;;;;;;;3.65;1.20;;;-0.50;93.90;;;;;;5011921;28;20038;-52
2021/12/25 03:42:20;;;;;;;5.72;1.30;;;-0.60;94.70;;;;;;5003648;28;20038;-50
2021/12/25 03:44:46;;;;;;;4.32;1.48;;;-0.70;95.00;;;;;;5011860;28;20461;-52
2021/12/25 03:47:24;;;;;;;6.03;1.30;;;-0.70;94.90;;;;;;5011881;28;20037;-51
2021/12/25 03:58:08;;;;;;;1.77;1.00;;;-0.80;91.80;;;;;;5031408;28;20052;-51
2021/12/25 04:00:35;;;;;;;7.90;1.17;;;-0.90;92.70;;;;;;5016981;28;20121;-51
2021/12/25 04:03:05;;;;;;;1.15;0.70;;;-1.00;91.90;;;;;;5011403;28;20096;-53
2021/12/25 04:05:33;;;;;;;3.78;0.98;;;-0.90;90.70;;;;;;4993636;28;20038;-52
2021/12/25 04:08:05;;;;;;;3.47;1.10;;;-1.00;90.50;;;;;;5011579;28;20041;-52
2021/12/25 04:10:36;;;;;;;5.07;1.00;;;-1.00;90.20;;;;;;5011562;28;20065;-50
2021/12/25 04:13:04;;;;;;;2.25;0.82;;;-1.10;90.40;;;;;;4994044;28;20497;-52
2021/12/25 04:15:30;;;;;;;2.50;0.85;;;-1.10;90.30;;;;;;5011329;28;20405;-53
2021/12/25 04:17:56;;;;;;;3.20;0.82;;;-1.20;91.60;;;;;;5011167;28;20046;-50
2021/12/25 04:20:22;;;;;;;4.38;1.15;;;-1.20;91.20;;;;;;4995897;28;20111;-53
2021/12/25 04:22:56;;;;;;;3.03;0.90;;;-1.30;91.30;;;;;;5030960;28;20448;-51
2021/12/25 04:25:27;;;;;;;1.88;0.70;;;-1.20;90.60;;;;;;4978210;28;20042;-53
2021/12/25 04:27:55;;;;;;;2.05;0.90;;;-1.20;89.30;;;;;;5011651;28;20041;-49
2021/12/25 04:30:38;;;;;;;3.05;0.82;;;-1.20;90.60;;;;;;5025872;28;20116;-53
2021/12/25 05:04:09;;;;;;;1.73;0.60;;;-1.50;87.60;;;;;;5014426;28;20285;-47
2021/12/25 05:06:35;;;;;;;3.22;0.77;;;-1.60;88.50;;;;;;5028181;28;20047;-48
2021/12/25 05:09:00;;;;;;;3.80;0.88;;;-1.70;89.80;;;;;;5000306;28;20139;-49
2021/12/25 05:11:26;;;;;;;2.10;0.68;;;-1.60;87.80;;;;;;5034133;28;20541;-51
2021/12/25 05:13:51;;;;;;;1.75;0.77;;;-1.70;88.90;;;;;;5016317;28;20481;-52
2021/12/25 05:16:17;;;;;;;3.58;0.93;;;-1.70;89.80;;;;;;5015297;28;20072;-53
2021/12/25 05:18:43;;;;;;;1.90;0.50;;;-1.80;90.60;;;;;;5014216;28;20117;-51
2021/12/25 05:21:09;;;;;;;1.63;0.90;;;-1.80;90.10;;;;;;5026310;28;20038;-53
2021/12/25 05:23:36;;;;;;;1.88;0.60;;;-1.70;90.10;;;;;;5033538;28;20474;-52
2021/12/25 05:29:52;;;;;;;2.55;0.90;;;-1.80;90.60;;;;;;5044725;28;20048;-47
2021/12/25 05:32:19;;;;;;;6.15;1.00;;;-1.80;90.30;;;;;;5018671;28;20046;-47
2021/12/25 05:34:45;;;;;;;2.45;1.00;;;-1.90;91.00;;;;;;5013600;28;20498;-47
2021/12/25 05:37:11;;;;;;;2.47;0.93;;;-1.90;92.00;;;;;;5013766;28;20092;-47
2021/12/25 05:39:38;;;;;;;1.45;0.85;;;-1.90;91.00;;;;;;5013863;28;20045;-47
2021/12/25 05:42:03;;;;;;;2.60;0.70;;;-1.80;91.10;;;;;;5013939;28;20048;-50
2021/12/25 05:44:29;;;;;;;2.13;1.00;;;-1.90;92.00;;;;;;4996288;28;20427;-47
2021/12/25 05:46:55;;;;;;;2.50;0.93;;;-1.90;91.60;;;;;;5004535;28;20038;-47
2021/12/25 05:49:21;;;;;;;1.42;1.10;;;-1.90;92.30;;;;;;4979831;28;20038;-48
2021/12/25 05:51:47;;;;;;;6.80;1.10;;;-1.90;91.90;;;;;;5013236;28;20044;-47
2021/12/25 05:54:12;;;;;;;3.45;1.08;;;-1.90;91.20;;;;;;5013516;28;20073;-47
2021/12/25 05:56:38;;;;;;;3.45;0.90;;;-1.90;91.70;;;;;;5012469;28;20525;-50
2021/12/25 05:59:03;;;;;;;1.67;0.88;;;-1.90;91.40;;;;;;5013581;28;20073;-50
2021/12/25 06:01:30;;;;;;;3.85;1.05;;;-1.90;91.10;;;;;;5014047;28;20069;-50
2021/12/25 06:03:56;;;;;;;1.75;0.98;;;-2.00;91.30;;;;;;5012957;28;20038;-47
2021/12/25 06:06:23;;;;;;;3.00;1.08;;;-1.80;90.00;;;;;;5013102;28;20033;-49
2021/12/25 06:08:48;;;;;;;0.63;0.63;;;-1.80;89.80;;;;;;5013308;28;20046;-52
2021/12/25 06:11:16;;;;;;;2.70;0.90;;;-1.90;90.00;;;;;;5013167;28;20052;-47
2021/12/25 06:13:48;;;;;;;0.63;0.43;;;-1.90;90.60;;;;;;5013008;28;20042;-50
2021/12/25 06:16:14;;;;;;;0.38;0.38;;;-2.00;90.80;;;;;;5007765;28;20576;-48
2021/12/25 06:18:39;;;;;;;1.58;1.10;;;-1.90;90.90;;;;;;5012527;28;20046;-47
2021/12/25 06:21:05;;;;;;;4.93;0.90;;;-2.00;91.40;;;;;;5012859;28;20089;-50
2021/12/25 06:23:31;;;;;;;2.53;1.40;;;-2.00;91.30;;;;;;5012762;28;20056;-50
2021/12/25 06:25:56;;;;;;;3.53;0.93;;;-2.10;91.60;;;;;;5012847;28;20061;-48
2021/12/25 06:28:22;;;;;;;1.90;0.85;;;-2.00;91.10;;;;;;5013893;28;20050;-47
2021/12/25 06:30:49;;;;;;;1.52;0.68;;;-2.10;91.30;;;;;;5030173;28;20077;-48
2021/12/25 06:33:15;;;;;;;1.05;0.60;;;-2.10;91.60;;;;;;5029285;28;20128;-47
2021/12/25 06:35:41;;;;;;;2.10;0.60;;;-2.10;90.90;;;;;;5012772;28;20073;-51
2021/12/25 06:38:07;;;;;;;2.60;0.75;;;-2.00;88.30;;;;;;5012792;28;20066;-49
2021/12/25 06:40:32;;;;;;;2.20;0.80;;;-2.00;88.20;;;;;;5019792;28;20045;-49
2021/12/25 06:42:58;;;;;;;1.50;0.60;;;-2.00;87.20;;;;;;5031578;28;20045;-51
2021/12/25 06:45:24;;;;;;;2.83;0.73;;;-2.10;87.30;;;;;;5015282;28;20113;-48
2021/12/25 06:47:50;;;;;;;2.88;0.60;;;-2.10;86.10;;;;;;5023257;28;20108;-50
2021/12/25 06:50:15;;;;;;;3.30;0.85;;;-2.10;85.40;;;;;;5021856;28;20037;-48
2021/12/25 06:52:45;;;;;;;1.90;0.80;;;-2.20;85.70;;;;;;5021298;28;20401;-48
2021/12/25 06:55:12;;;;;;;1.35;0.70;;;-2.20;86.30;;;;;;5026439;28;20037;-50
2021/12/25 06:57:45;;;;;;;0.80;0.50;;;-2.30;88.00;;;;;;5021410;28;20052;-48
2021/12/25 07:00:12;;;;;;;1.25;0.70;;;-2.40;88.00;;;;;;5026636;28;20167;-47
2021/12/25 07:02:37;;;;;;;2.95;0.55;;;-2.30;86.00;;;;;;5024229;28;20041;-49
2021/12/25 07:05:03;;;;;;;3.92;0.70;;;-2.30;84.20;;;;;;5017306;28;20030;-47
2021/12/25 07:07:29;;;;;;;2.17;0.43;;;-2.20;83.60;;;;;;5022365;28;20069;-48
2021/12/25 07:09:55;;;;;;;3.20;0.60;;;-2.20;81.20;;;;;;5030049;28;20041;-48
2021/12/25 07:12:24;;;;;;;0.88;0.60;;;-2.30;83.60;;;;;;5026716;28;20464;-49
2021/12/25 07:14:49;;;;;;;1.85;0.70;;;-2.20;81.40;;;;;;5026797;28;20049;-50
2021/12/25 07:17:15;;;;;;;0.60;0.40;;;-3.00;82.80;;;;;;5025398;28;20037;-50
2021/12/25 07:19:40;;;;;;;0.85;0.50;;;-2.40;82.70;;;;;;5006276;28;20034;-50
2021/12/25 07:22:06;;;;;;;1.70;0.65;;;-2.40;83.80;;;;;;4960215;28;20065;-48
2021/12/25 07:24:32;;;;;;;2.47;0.63;;;-2.30;81.20;;;;;;5028353;28;20038;-49
2021/12/25 07:27:03;;;;;;;1.98;0.60;;;-2.20;79.50;;;;;;4996122;28;20512;-49
2021/12/25 07:29:28;;;;;;;1.15;0.47;;;-2.30;79.40;;;;;;5029028;28;20073;-50
2021/12/25 07:31:54;;;;;;;1.17;0.90;;;-2.30;79.70;;;;;;5030972;28;20088;-48
2021/12/25 07:34:19;;;;;;;1.42;0.60;;;-2.30;80.60;;;;;;5021478;28;20061;-48
2021/12/25 07:36:45;;;;;;;2.17;0.70;;;-2.50;82.00;;;;;;5016200;28;20048;-49
2021/12/25 07:39:11;;;;;;;1.35;0.50;;;-2.50;80.20;;;;;;5018274;28;20068;-48
2021/12/25 07:41:37;;;;;;;2.33;0.43;;;-2.50;81.30;;;;;;4970914;28;20460;-48
2021/12/25 07:44:04;;;;;;;3.30;0.70;;;-2.30;79.60;;;;;;5006875;28;20682;-50
2021/12/25 07:46:30;;;;;;;0.57;0.40;;;-2.40;80.00;;;;;;5031437;28;20052;-49
2021/12/25 07:48:56;;;;;;;1.80;0.60;;;-2.50;80.50;;;;;;5025789;28;20078;-50
2021/12/25 07:51:22;;;;;;;3.75;0.85;;;-2.50;80.60;;;;;;5007700;28;20095;-50
2021/12/25 07:53:48;;;;;;;1.85;0.70;;;-2.60;81.40;;;;;;4968803;28;20045;-50
2021/12/25 07:56:14;;;;;;;2.10;0.70;;;-2.60;80.90;;;;;;5005520;28;20449;-47
2021/12/25 07:58:42;;;;;;;1.38;0.70;;;-2.60;80.20;;;;;;5024930;28;20168;-51
2021/12/25 08:01:08;;;;;;;1.90;0.70;;;-2.50;79.90;;;;;;5021514;28;20068;-51
2021/12/25 08:03:35;;;;;;;1.58;0.95;;;-2.70;81.00;;;;;;5026188;28;20057;-48
2021/12/25 08:06:00;;;;;;;2.60;0.60;;;-2.50;79.40;;;;;;5030971;28;20116;-50
2021/12/25 08:08:26;;;;;;;3.03;0.68;;;-2.50;78.80;;;;;;5011174;28;20129;-48
2021/12/25 08:10:52;;;;;;;1.08;0.50;;;-2.50;79.00;;;;;;5023517;28;20507;-51
2021/12/25 08:13:17;;;;;;;1.55;0.85;;;-2.50;79.00;;;;;;5025018;28;20505;-47
2021/12/25 08:15:43;;;;;;;1.58;0.68;;;-2.50;79.10;;;;;;5024925;28;20516;-48
2021/12/25 08:18:09;;;;;;;1.67;0.77;;;-2.50;79.20;;;;;;5027524;28;20042;-48
2021/12/25 08:20:36;;;;;;;1.42;0.77;;;-2.50;78.70;;;;;;5029654;28;20083;-48
2021/12/25 08:23:01;;;;;;;3.92;0.95;;;-2.50;79.40;;;;;;4996907;28;20452;-49
2021/12/25 08:25:27;;;;;;;2.28;0.70;;;-2.50;78.00;;;;;;5005277;28;20041;-48
2021/12/25 08:27:53;;;;;;;2.15;0.70;;;-2.50;79.50;;;;;;5005012;28;20037;-50
2021/12/25 08:30:21;;;;;;;1.38;0.47;;;-2.40;78.40;;;;;;5027075;28;20050;-52
2021/12/25 08:32:50;;;;;;;3.67;0.65;;;-2.50;78.60;;;;;;5025551;28;20048;-48
2021/12/25 08:35:16;;;;;;;1.25;0.90;;;-2.40;78.60;;;;;;5033871;28;20077;-51
2021/12/25 08:37:45;;;;;;;1.77;0.75;;;-2.40;78.40;;;;;;5014510;28;20037;-51
2021/12/25 08:40:13;;;;;;;3.05;0.70;;;-2.40;78.50;;;;;;5034519;28;20074;-48
2021/12/25 08:42:47;;;;;;;1.15;0.50;;;-2.40;78.70;;;;;;4996209;28;20319;-51
2021/12/25 08:48:21;;;;;;;1.40;0.50;;;-2.50;78.40;;;;;;4972557;28;20450;-48
2021/12/25 08:50:59;;;;;;;3.22;0.60;;;-2.40;77.70;;;;;;5015270;28;20117;-49
2021/12/25 08:53:26;;;;;;;4.78;0.80;;;-2.40;77.80;;;;;;5028320;28;20107;-50
2021/12/25 08:55:55;;;;;;;1.15;0.40;;;-2.30;77.50;;;;;;5016581;28;20555;-54
2021/12/25 08:58:22;;;;;;;1.48;0.60;;;-2.40;78.50;;;;;;5000950;28;20460;-54
2021/12/25 09:00:50;;;;;;;2.75;0.75;;;-2.40;79.10;;;;;;5033008;28;20041;-51
2021/12/25 09:03:16;;;;;;;1.42;0.50;;;-2.30;77.60;;;;;;5029882;28;20434;-52
2021/12/25 09:05:42;;;;;;;3.00;0.70;;;-2.30;78.80;;;;;;5015129;28;20037;-51
2021/12/25 09:08:07;;;;;;;5.15;0.90;;;-2.30;77.70;;;;;;5015660;28;20276;-51
2021/12/25 09:10:35;;;;;;;4.35;0.75;;;-2.40;79.00;;;;;;5025920;28;20088;-52
2021/12/25 09:13:00;;;;;;;3.75;0.75;;;-2.50;79.50;;;;;;5022584;28;20044;-50
2021/12/25 09:15:26;;;;;;;6.55;0.90;;;-2.40;79.50;;;;;;5022398;28;20041;-49
2021/12/25 09:17:52;;;;;;;6.13;1.08;;;-2.20;78.20;;;;;;5018503;28;20042;-48
2021/12/25 09:20:19;;;;;;;2.25;0.82;;;-2.30;78.90;;;;;;5018442;28;20042;-50
2021/12/25 09:22:45;;;;;;;5.78;0.90;;;-2.40;80.50;;;;;;5017232;28;20411;-50
2021/12/25 09:25:12;;;;;;;1.40;0.90;;;-2.30;80.60;;;;;;4987266;28;20033;-50
2021/12/25 09:27:38;;;;;;;3.38;0.50;;;-2.20;80.10;;;;;;5023059;28;20041;-47
2021/12/25 09:30:05;;;;;;;4.03;0.90;;;-2.20;80.10;;;;;;5018471;28;20516;-49
2021/12/25 09:32:30;;;;;;;3.42;0.80;;;-2.20;80.40;;;;;;5023150;28;20529;-49
2021/12/25 09:35:00;;;;;;;1.20;0.60;;;-2.20;81.10;;;;;;5022789;28;20080;-47
2021/12/25 09:37:29;;;;;;;4.30;0.80;;;-2.10;80.60;;;;;;5020761;28;20053;-48
2021/12/25 09:39:55;;;;;;;3.42;0.70;;;-2.10;80.70;;;;;;5030981;28;20041;-48
2021/12/25 09:42:24;;;;;;;2.80;1.00;;;-1.90;79.40;;;;;;5007196;28;20073;-47
2021/12/25 09:44:50;;;;;;;2.53;1.15;;;-1.90;79.50;;;;;;5014074;28;20155;-49
2021/12/25 09:47:15;;;;;;;2.38;0.47;;;-2.00;79.80;;;;;;5021884;28;20124;-47
2021/12/25 09:49:41;;;;;;;2.10;0.57;;;-2.00;80.60;;;;;;5018687;28;20179;-48
2021/12/25 09:52:07;;;;;;;2.58;0.80;;;-1.80;79.50;;;;;;5017641;28;20473;-49
2021/12/25 09:54:32;;;;;;;3.35;0.77;;;-2.00;81.10;;;;;;5006647;28;20037;-47
2021/12/25 09:56:58;;;;;;;2.33;0.60;;;-1.90;79.90;;;;;;5002842;28;20038;-49
2021/12/25 09:59:25;;;;;;;2.25;0.82;;;-1.90;79.20;;;;;;5028591;28;20034;-49
2021/12/25 10:01:53;;;;;;;3.80;0.60;;;-1.90;79.90;;;;;;5013435;28;20526;-47
2021/12/25 10:04:44;;;;;;;4.55;0.98;;;-1.90;80.10;;;;;;5013004;28;20045;-48
2021/12/25 10:07:23;;;;;;;1.42;0.52;;;-1.90;79.10;;;;;;5013434;28;20053;-49
2021/12/25 10:10:02;;;;;;;2.75;0.90;;;-1.80;78.00;;;;;;4996158;28;20410;-47
2021/12/25 10:12:37;;;;;;;2.60;0.80;;;-1.90;80.20;;;;;;5022659;28;20044;-49
2021/12/25 10:15:05;;;;;;;1.25;0.75;;;-1.90;79.40;;;;;;5033082;28;20121;-49
2021/12/25 10:17:32;;;;;;;2.58;0.70;;;-1.80;79.00;;;;;;5029536;28;20046;-48
2021/12/25 10:20:11;;;;;;;3.72;1.00;;;-1.80;78.80;;;;;;4989287;28;20565;-48
2021/12/25 10:22:52;;;;;;;3.33;1.00;;;-1.80;79.10;;;;;;5023041;28;20041;-47
2021/12/25 10:25:18;;;;;;;1.67;1.05;;;-1.80;80.20;;;;;;4995254;28;20048;-47
2021/12/25 10:28:06;;;;;;;1.80;0.88;;;-1.70;79.10;;;;;;5008719;28;20378;-47
2021/12/25 10:30:43;;;;;;;3.85;0.80;;;-1.70;79.10;;;;;;5032398;28;20071;-48
2021/12/25 10:33:25;;;;;;;2.08;0.77;;;-1.60;78.10;;;;;;5032366;28;20080;-47
2021/12/25 10:35:51;;;;;;;4.53;1.10;;;-1.60;78.80;;;;;;5026282;28;20052;-47
2021/12/25 10:38:17;;;;;;;3.40;0.80;;;-1.60;79.30;;;;;;5032645;28;20042;-46
2021/12/25 10:40:43;;;;;;;3.92;1.38;;;-1.50;78.70;;;;;;5031514;28;20045;-47
2021/12/25 10:43:22;;;;;;;2.05;0.70;;;-1.50;78.20;;;;;;5031648;28;20401;-47
2021/12/25 10:46:02;;;;;;;3.17;1.02;;;-1.50;77.90;;;;;;4983836;28;20044;-47
2021/12/25 10:48:30;;;;;;;1.02;0.60;;;-1.40;76.20;;;;;;5032250;28;20044;-48
2021/12/25 10:50:58;;;;;;;0.77;0.77;;;-1.40;76.70;;;;;;5024162;28;20159;-46
2021/12/25 10:53:28;;;;;;;2.08;0.80;;;-1.40;76.30;;;;;;5019944;28;20559;-50
2021/12/25 10:56:06;;;;;;;3.75;0.80;;;-1.30;77.10;;;;;;5000544;28;20080;-47
2021/12/25 10:58:32;;;;;;;1.92;0.68;;;-1.30;75.30;;;;;;5019758;28;20121;-46
2021/12/25 11:00:58;;;;;;;1.27;0.60;;;-1.30;76.00;;;;;;5024242;28;20068;-49
2021/12/25 11:03:31;;;;;;;3.22;0.85;;;-1.20;75.00;;;;;;5025585;28;20041;-48
2021/12/25 11:06:05;;;;;;;3.45;0.90;;;-1.20;74.70;;;;;;5031801;28;20405;-46
2021/12/25 11:08:32;;;;;;;2.65;0.73;;;-1.20;74.60;;;;;;5018201;28;20052;-50
2021/12/25 11:11:19;;;;;;;8.18;1.20;;;-1.20;75.70;;;;;;5022901;28;20482;-48
2021/12/25 11:13:51;;;;;;;2.25;0.70;;;-1.10;75.80;;;;;;5024193;28;20042;-50
2021/12/25 11:16:26;;;;;;;1.48;0.63;;;-1.10;74.90;;;;;;5032325;28;20091;-49
2021/12/25 11:19:15;;;;;;;4.65;0.98;;;-1.10;73.40;;;;;;4986591;28;20124;-46
2021/12/25 11:21:43;;;;;;;2.00;0.95;;;-1.00;72.90;;;;;;5023727;28;20108;-55
2021/12/25 11:24:13;;;;;;;1.77;0.70;;;-0.90;71.60;;;;;;4978175;28;20060;-47
2021/12/25 11:26:41;;;;;;;4.30;0.57;;;-1.00;71.50;;;;;;5030073;28;20698;-47
2021/12/25 11:29:11;;;;;;;2.05;0.90;;;-1.00;72.20;;;;;;5024396;28;20095;-47
2021/12/25 11:31:37;;;;;;;1.50;0.60;;;-0.90;72.30;;;;;;5027653;28;20038;-46
2021/12/25 11:34:04;;;;;;;1.77;0.80;;;-0.90;72.40;;;;;;5028896;22;20045;-49
2021/12/25 11:36:31;;;;;;;1.98;0.77;;;-0.90;72.30;;;;;;5009804;28;20454;-48
2021/12/25 11:38:57;;;;;;;1.70;0.65;;;-0.90;72.60;;;;;;5011373;28;20034;-49
2021/12/25 11:41:29;;;;;;;4.35;1.00;;;-0.80;70.20;;;;;;5011278;28;20040;-47
2021/12/25 11:43:55;;;;;;;1.27;0.60;;;-0.70;70.20;;;;;;5010279;28;20092;-47
2021/12/25 11:46:23;;;;;;;5.40;1.08;;;-0.70;69.20;;;;;;5010950;28;20115;-49
2021/12/25 11:49:18;;;;;;;1.95;0.80;;;-0.80;71.30;;;;;;5006679;28;20034;-48
2021/12/25 11:51:46;;;;;;;1.10;0.60;;;-0.80;70.90;;;;;;4990583;28;20049;-47
2021/12/25 11:54:55;;;;;;;0.77;0.57;;;-0.70;70.30;;;;;;5010234;28;20034;-50
2021/12/25 11:59:53;;;;;;;2.72;0.80;;;-0.70;70.60;;;;;;5008856;28;20125;-48
2021/12/25 12:02:43;;;;;;;3.40;0.90;;;-0.80;70.00;;;;;;4992750;28;20076;-50
2021/12/25 12:05:24;;;;;;;4.38;1.10;;;-0.40;71.90;;;;;;5003095;28;20514;-50
2021/12/25 12:08:09;;;;;;;5.53;1.85;;;-0.80;71.00;;;;;;5011789;28;20033;-47
2021/12/25 12:10:48;;;;;;;1.98;0.70;;;-0.70;71.10;;;;;;5010981;28;20414;-51
2021/12/25 12:13:24;;;;;;;3.97;0.70;;;-0.70;69.70;;;;;;5008009;28;20054;-50
2021/12/25 12:15:57;;;;;;;2.78;1.05;;;-0.70;69.80;;;;;;5010937;28;20041;-49
2021/12/25 12:20:56;;;;;;;2.80;0.80;;;-0.50;69.90;;;;;;5014990;28;20042;-50
2021/12/25 12:26:11;;;;;;;2.33;0.77;;;-0.50;71.10;;;;;;5015403;28;20046;-48
2021/12/25 12:28:54;;;;;;;2.05;0.80;;;-0.50;70.50;;;;;;4992272;28;20033;-50
2021/12/25 12:31:40;;;;;;;2.28;0.90;;;-0.50;69.90;;;;;;5006150;28;20105;-47
2021/12/25 12:34:32;;;;;;;3.85;1.05;;;-0.50;69.10;;;;;;5001962;28;20070;-47
2021/12/25 12:37:28;;;;;;;1.23;0.70;;;-0.50;69.00;;;;;;4975411;28;20100;-50
2021/12/25 12:40:00;;;;;;;2.20;0.60;;;-0.60;70.00;;;;;;4990949;28;20054;-51
2021/12/25 12:42:48;;;;;;;2.20;0.90;;;-0.50;68.30;;;;;;4994737;28;20045;-47
2021/12/25 12:45:31;;;;;;;1.75;0.73;;;-0.50;69.00;;;;;;4990177;28;20052;-51
2021/12/25 12:48:10;;;;;;;0.77;0.50;;;-0.40;67.30;;;;;;4967691;28;20038;-48
2021/12/25 12:50:38;;;;;;;2.35;0.80;;;-0.40;66.90;;;;;;4989575;28;20033;-49
2021/12/25 12:53:09;;;;;;;3.05;0.80;;;-0.40;66.20;;;;;;4992179;28;20065;-51
2021/12/25 12:55:40;;;;;;;5.43;1.00;;;-0.40;66.70;;;;;;5009972;28;20401;-50
2021/12/25 12:58:35;;;;;;;2.95;1.10;;;-0.40;67.60;;;;;;4995630;28;20383;-48
2021/12/25 13:01:10;;;;;;;1.40;0.75;;;-0.50;68.10;;;;;;4999418;28;20061;-49
2021/12/25 13:03:36;;;;;;;1.45;0.77;;;-0.50;66.90;;;;;;4959034;28;20121;-49
2021/12/25 13:06:11;;;;;;;2.10;0.88;;;-0.40;66.80;;;;;;4987894;28;20045;-49
2021/12/25 13:08:39;;;;;;;4.47;1.08;;;-0.30;66.50;;;;;;5009742;28;20044;-47
2021/12/25 13:11:31;;;;;;;4.50;0.95;;;-0.20;65.20;;;;;;5007692;28;20042;-52
2021/12/25 13:14:01;;;;;;;3.47;0.63;;;-0.30;65.80;;;;;;5010666;28;20394;-51
2021/12/25 13:16:38;;;;;;;3.97;1.13;;;-0.40;66.20;;;;;;4983418;28;20882;-52
2021/12/25 13:19:05;;;;;;;4.22;1.38;;;-0.40;66.20;;;;;;5004651;28;20514;-50
2021/12/25 13:21:33;;;;;;;1.67;0.80;;;-0.30;65.60;;;;;;4977126;28;20045;-49
2021/12/25 13:24:11;;;;;;;1.60;0.90;;;-0.30;66.80;;;;;;4998012;28;20038;-50
2021/12/25 13:26:42;;;;;;;1.80;0.75;;;-0.30;67.70;;;;;;4995097;28;20509;-50
2021/12/25 13:29:20;;;;;;;1.77;1.27;;;-0.30;67.20;;;;;;4996047;28;20038;-50
2021/12/25 13:31:46;;;;;;;3.10;0.90;;;-0.20;67.00;;;;;;5013631;28;20518;-49
2021/12/25 13:34:19;;;;;;;2.53;0.90;;;-0.30;67.80;;;;;;5005252;28;20042;-50
2021/12/25 13:36:47;;;;;;;4.25;1.77;;;-0.30;67.90;;;;;;5014078;28;20418;-49
2021/12/25 13:39:16;;;;;;;7.55;3.47;;;-0.10;66.90;;;;;;5008616;28;20045;-47
2021/12/25 13:41:45;;;;;;;2.25;1.08;;;-0.10;65.30;;;;;;4995563;28;20088;-47
2021/12/25 13:44:21;;;;;;;1.85;0.65;;;-0.30;66.40;;;;;;4996089;28;20117;-47
2021/12/25 13:46:52;;;;;;;5.95;1.30;;;-0.20;66.80;;;;;;5013997;28;20053;-47
2021/12/25 13:49:46;;;;;;;2.10;1.38;;;-0.30;67.10;;;;;;5013630;28;20038;-47
2021/12/25 13:52:24;;;;;;;1.75;1.15;;;-0.30;67.30;;;;;;4996002;28;20042;-47
2021/12/25 13:54:55;;;;;;;3.65;1.38;;;-0.30;67.10;;;;;;4995659;28;20057;-53
2021/12/25 13:57:22;;;;;;;1.95;1.17;;;-0.30;67.80;;;;;;5013152;28;20052;-48
2021/12/25 13:59:53;;;;;;;2.63;1.10;;;-0.30;66.40;;;;;;5013353;28;20497;-50
2021/12/25 14:02:21;;;;;;;3.78;1.10;;;-0.20;65.90;;;;;;5012975;28;20046;-48
2021/12/25 14:04:51;;;;;;;3.78;1.10;;;-0.30;67.00;;;;;;5013164;28;20056;-48
2021/12/25 14:07:20;;;;;;;2.05;0.98;;;-0.30;66.60;;;;;;5013008;28;20069;-51
2021/12/25 14:10:09;;;;;;;2.67;1.00;;;-0.20;65.80;;;;;;4995288;28;20541;-50
2021/12/25 14:12:38;;;;;;;1.77;0.82;;;-0.30;66.00;;;;;;4979157;28;20183;-50
2021/12/25 14:15:05;;;;;;;3.22;0.90;;;-0.40;67.30;;;;;;5013189;28;20041;-47
2021/12/25 14:17:32;;;;;;;1.65;1.02;;;-0.30;65.80;;;;;;5012533;28;20068;-47
2021/12/25 14:20:28;;;;;;;2.30;1.10;;;-0.40;66.90;;;;;;5005938;28;20038;-47
2021/12/25 14:23:06;;;;;;;3.70;1.05;;;-0.40;67.60;;;;;;4986478;28;20066;-52
2021/12/25 14:25:44;;;;;;;2.80;1.08;;;-0.40;67.50;;;;;;5006024;28;20475;-51
2021/12/25 14:28:16;;;;;;;4.55;1.30;;;-0.40;68.30;;;;;;5005551;28;20143;-47
2021/12/25 14:31:03;;;;;;;4.50;1.08;;;-0.40;67.90;;;;;;5008811;28;20173;-47